createdAt,value
2022-08-18T00:02:17.157Z,75.91
2022-08-18T00:04:48.907Z,76.79
2022-08-18T00:07:22.206Z,77.98
2022-08-18T00:09:50.101Z,78.48
2022-08-18T00:12:23.033Z,76.86
2022-08-18T00:14:51.153Z,76.29
2022-08-18T00:17:19.161Z,75.59
2022-08-18T00:19:48.376Z,75.99
2022-08-18T00:22:18.612Z,77.12
2022-08-18T00:24:50.373Z,76.20
2022-08-18T00:27:23.686Z,76.36
2022-08-18T00:29:55.220Z,76.81
2022-08-18T00:32:25.802Z,75.99
2022-08-18T00:34:54.299Z,76.79
2022-08-18T00:37:23.280Z,76.01
2022-08-18T00:39:52.436Z,76.61
2022-08-18T00:42:27.292Z,75.60
2022-08-18T00:44:59.103Z,76.41
2022-08-18T00:47:41.274Z,76.37
2022-08-18T00:50:20.235Z,76.79
2022-08-18T00:52:55.420Z,76.79
2022-08-18T00:55:23.721Z,78.44
2022-08-18T00:57:55.626Z,76.85
2022-08-18T01:00:23.648Z,78.10
2022-08-18T01:02:55.289Z,76.27
2022-08-18T01:05:27.428Z,77.81
2022-08-18T01:07:56.186Z,76.44
2022-08-18T01:10:24.625Z,76.21
2022-08-18T01:12:56.011Z,77.27
2022-08-18T01:15:27.813Z,75.95
2022-08-18T01:18:13.818Z,76.81
2022-08-18T01:21:16.174Z,76.13
2022-08-18T01:23:46.348Z,75.03
2022-08-18T01:26:13.920Z,75.38
2022-08-18T01:28:44.525Z,76.17
2022-08-18T01:31:13.739Z,75.27
2022-08-18T01:33:44.200Z,75.18
2022-08-18T01:36:16.664Z,75.01
2022-08-18T01:38:47.168Z,75.21
2022-08-18T01:41:28.804Z,75.21
2022-08-18T01:43:58.419Z,75.22
2022-08-18T01:46:26.308Z,74.58
2022-08-18T01:48:54.267Z,74.44
2022-08-18T01:51:39.472Z,74.52
2022-08-18T01:54:12.690Z,75.67
2022-08-18T01:56:43.085Z,77.23
2022-08-18T01:59:13.526Z,76.64
2022-08-18T02:01:50.368Z,77.47
2022-08-18T02:04:35.169Z,77.98
2022-08-18T02:07:07.521Z,76.65
2022-08-18T02:09:37.300Z,76.37
2022-08-18T02:12:06.986Z,75.71
2022-08-18T02:14:34.741Z,75.77
2022-08-18T02:17:04.457Z,75.30
2022-08-18T02:19:34.713Z,76.78
2022-08-18T02:22:03.096Z,76.42
2022-08-18T02:24:31.105Z,75.56
2022-08-18T02:27:00.295Z,75.45
2022-08-18T02:29:29.854Z,75.38
2022-08-18T02:31:57.798Z,75.36
2022-08-18T02:34:25.562Z,75.10
2022-08-18T02:36:54.068Z,75.61
2022-08-18T02:39:21.987Z,76.19
2022-08-18T02:41:49.735Z,75.52
2022-08-18T02:44:18.820Z,76.71
2022-08-18T02:46:46.833Z,75.76
2022-08-18T02:49:14.526Z,75.72
2022-08-18T02:51:43.799Z,75.45
2022-08-18T02:54:11.533Z,75.57
2022-08-18T02:56:41.244Z,76.09
2022-08-18T02:59:17.573Z,75.29
2022-08-18T03:01:48.652Z,74.75
2022-08-18T03:04:21.144Z,75.29
2022-08-18T03:06:50.677Z,75.04
2022-08-18T03:09:18.740Z,75.70
2022-08-18T03:11:46.763Z,75.40
2022-08-18T03:14:15.057Z,75.40
2022-08-18T03:16:52.699Z,75.50
2022-08-18T03:19:24.545Z,75.36
2022-08-18T03:21:52.497Z,74.89
2022-08-18T03:24:22.798Z,75.48
2022-08-18T03:26:52.783Z,76.89
2022-08-18T03:29:20.595Z,76.49
2022-08-18T03:31:48.697Z,75.33
2022-08-18T03:34:19.561Z,75.71
2022-08-18T03:36:49.833Z,75.21
2022-08-18T03:39:18.750Z,75.42
2022-08-18T03:41:58.274Z,76.26
2022-08-18T03:44:31.849Z,75.53
2022-08-18T03:47:00.118Z,75.27
2022-08-18T03:49:30.294Z,75.19
2022-08-18T03:52:00.556Z,76.42
2022-08-18T03:54:31.905Z,76.17
2022-08-18T03:57:00.154Z,76.44
2022-08-18T03:59:30.545Z,76.00
2022-08-18T04:01:58.582Z,75.54
2022-08-18T04:04:28.742Z,76.99
2022-08-18T04:06:59.548Z,75.67
2022-08-18T04:09:28.844Z,75.49
2022-08-18T04:11:57.221Z,74.89
2022-08-18T04:14:28.773Z,75.43
2022-08-18T04:16:56.636Z,74.93
2022-08-18T04:19:27.396Z,75.46
2022-08-18T04:21:56.605Z,75.15
2022-08-18T04:24:27.932Z,75.18
2022-08-18T04:26:58.128Z,75.48
2022-08-18T04:29:25.999Z,75.83
2022-08-18T04:31:54.224Z,75.84
2022-08-18T04:34:23.257Z,75.47
2022-08-18T04:36:54.316Z,75.46
2022-08-18T04:39:22.796Z,75.64
2022-08-18T04:41:52.114Z,75.37
2022-08-18T04:44:21.599Z,75.90
2022-08-18T04:46:51.597Z,75.60
2022-08-18T04:49:21.247Z,75.77
2022-08-18T04:52:36.099Z,75.40
2022-08-18T04:54:58.176Z,76.13
2022-08-18T04:57:27.249Z,78.36
2022-08-18T04:59:55.071Z,77.82
2022-08-18T05:02:22.989Z,79.01
2022-08-18T05:04:52.519Z,79.70
2022-08-18T05:07:22.468Z,78.96
2022-08-18T05:09:51.861Z,77.97
2022-08-18T05:12:20.436Z,78.07
2022-08-18T05:14:56.825Z,78.28
2022-08-18T05:17:29.086Z,78.70
2022-08-18T05:19:58.720Z,79.72
2022-08-18T05:22:30.463Z,78.73
2022-08-18T05:24:58.552Z,80.72
2022-08-18T05:27:26.284Z,80.92
2022-08-18T05:29:55.351Z,80.99
2022-08-18T05:32:30.375Z,80.28
2022-08-18T05:35:14.074Z,82.54
2022-08-18T05:37:48.552Z,81.22
2022-08-18T05:40:16.598Z,80.87
2022-08-18T05:42:44.656Z,81.29
2022-08-18T05:45:17.473Z,82.32
2022-08-18T05:47:45.750Z,81.17
2022-08-18T05:50:17.297Z,84.38
2022-08-18T05:52:52.120Z,82.70
2022-08-18T05:55:45.929Z,84.98
2022-08-18T05:58:19.025Z,84.97
2022-08-18T06:00:58.776Z,84.35
2022-08-18T06:03:45.069Z,83.33
2022-08-18T06:06:17.493Z,84.14
2022-08-18T06:08:53.631Z,86.45
2022-08-18T06:11:22.661Z,83.94
2022-08-18T06:13:51.677Z,88.10
2022-08-18T06:16:36.146Z,83.95
2022-08-18T06:19:13.956Z,85.12
2022-08-18T06:21:47.270Z,85.49
2022-08-18T06:24:24.861Z,86.07
2022-08-18T06:26:59.279Z,87.04
2022-08-18T06:29:38.529Z,87.54
2022-08-18T06:32:14.277Z,87.96
2022-08-18T06:35:04.891Z,89.15
2022-08-18T06:37:58.291Z,89.81
2022-08-18T06:40:26.104Z,89.43
2022-08-18T06:42:53.869Z,88.81
2022-08-18T06:45:25.521Z,91.28
2022-08-18T06:48:15.316Z,90.50
2022-08-18T06:50:49.437Z,89.49
2022-08-18T06:53:27.282Z,88.94
2022-08-18T06:55:56.710Z,89.45
2022-08-18T06:58:29.821Z,88.60
2022-08-18T07:01:01.050Z,90.61
2022-08-18T07:03:45.395Z,87.17
2022-08-18T07:06:26.748Z,89.81
2022-08-18T07:08:56.765Z,88.60
2022-08-18T07:11:26.493Z,87.70
2022-08-18T07:14:14.980Z,89.36
2022-08-18T07:16:59.757Z,88.64
2022-08-18T07:19:32.297Z,89.34
2022-08-18T07:22:03.800Z,91.02
2022-08-18T07:24:33.225Z,90.02
2022-08-18T07:27:04.485Z,90.69
2022-08-18T07:29:34.300Z,88.11
2022-08-18T07:32:04.309Z,90.87
2022-08-18T07:34:37.454Z,89.58
2022-08-18T07:37:15.480Z,89.96
2022-08-18T07:39:47.408Z,89.34
2022-08-18T07:42:37.185Z,90.08
2022-08-18T07:45:13.750Z,90.58
2022-08-18T07:47:48.923Z,91.93
2022-08-18T07:50:36.374Z,92.16
2022-08-18T07:53:12.384Z,91.04
2022-08-18T07:55:46.681Z,91.10
2022-08-18T07:58:22.436Z,89.69
2022-08-18T08:00:59.115Z,90.54
2022-08-18T08:03:35.317Z,90.63
2022-08-18T08:06:11.584Z,89.59
2022-08-18T08:08:44.040Z,88.86
2022-08-18T08:11:22.021Z,89.95
2022-08-18T08:13:59.736Z,89.83
2022-08-18T08:16:38.271Z,90.84
2022-08-18T08:19:58.774Z,90.72
2022-08-18T08:22:25.417Z,89.20
2022-08-18T08:25:00.612Z,90.30
2022-08-18T08:27:42.301Z,90.36
2022-08-18T08:30:12.774Z,91.91
2022-08-18T08:32:51.629Z,90.70
2022-08-18T08:35:49.597Z,91.22
2022-08-18T08:38:39.467Z,89.39
2022-08-18T08:41:09.902Z,90.66
2022-08-18T08:43:41.009Z,90.48
2022-08-18T08:46:11.666Z,88.66
2022-08-18T08:48:42.796Z,91.42
2022-08-18T08:51:25.459Z,90.30
2022-08-18T08:54:05.609Z,88.39
2022-08-18T08:56:40.492Z,88.08
2022-08-18T08:59:11.485Z,89.33
2022-08-18T09:01:45.025Z,87.35
2022-08-18T09:04:22.515Z,90.36
2022-08-18T09:07:02.663Z,89.50
2022-08-18T09:09:49.984Z,89.02
2022-08-18T09:12:36.284Z,88.37
2022-08-18T09:15:19.995Z,87.85
2022-08-18T09:18:04.427Z,90.09
2022-08-18T09:20:49.537Z,90.75
2022-08-18T09:23:20.740Z,90.45
2022-08-18T09:25:53.009Z,89.21
2022-08-18T09:28:24.552Z,89.35
2022-08-18T09:31:15.389Z,88.92
2022-08-18T09:34:10.704Z,88.43
2022-08-18T09:36:49.107Z,88.11
2022-08-18T09:39:41.563Z,87.74
2022-08-18T09:42:14.239Z,87.58
2022-08-18T09:45:02.613Z,87.53
2022-08-18T09:48:08.770Z,87.25
2022-08-18T09:50:57.773Z,87.90
2022-08-18T09:53:39.731Z,88.19
2022-08-18T09:56:07.996Z,88.42
2022-08-18T09:58:52.646Z,87.27
2022-08-18T10:01:22.714Z,88.34
2022-08-18T10:04:33.455Z,87.08
2022-08-18T10:07:20.410Z,86.93
2022-08-18T10:10:59.053Z,87.21
2022-08-18T10:13:03.801Z,87.02
2022-08-18T10:15:39.297Z,87.44
2022-08-18T10:18:33.934Z,88.24
2022-08-18T10:21:09.933Z,87.82
2022-08-18T10:23:58.135Z,86.48
2022-08-18T10:27:10.778Z,86.78
2022-08-18T10:29:59.195Z,86.67
2022-08-18T10:32:52.113Z,86.56
2022-08-18T10:35:58.362Z,86.22
2022-08-18T10:38:32.579Z,86.54
2022-08-18T10:41:09.566Z,85.74
2022-08-18T10:43:55.342Z,86.06
2022-08-18T10:49:25.795Z,85.66
2022-08-18T10:52:21.035Z,84.69
2022-08-18T10:55:02.979Z,84.36
2022-08-18T10:57:37.370Z,84.18
2022-08-18T11:00:10.037Z,82.37
2022-08-18T11:03:42.660Z,83.79
2022-08-18T11:06:04.276Z,82.89
2022-08-18T11:08:36.901Z,82.68
2022-08-18T11:11:37.204Z,81.53
2022-08-18T11:14:15.766Z,82.15
2022-08-18T11:16:50.527Z,82.20
2022-08-18T11:19:23.218Z,82.15
2022-08-18T11:21:54.149Z,82.06
2022-08-18T11:24:25.037Z,82.16
2022-08-18T11:26:56.062Z,82.35
2022-08-18T11:29:28.702Z,82.44
2022-08-18T11:31:59.490Z,81.61
2022-08-18T11:34:33.278Z,82.11
2022-08-18T11:37:04.605Z,81.72
2022-08-18T11:39:43.956Z,82.23
2022-08-18T11:42:15.664Z,81.79
2022-08-18T11:44:49.740Z,82.52
2022-08-18T11:47:20.051Z,81.38
2022-08-18T11:49:59.382Z,80.85
2022-08-18T11:52:35.743Z,80.84
2022-08-18T11:58:39.280Z,79.68
2022-08-18T12:01:08.936Z,79.82
2022-08-18T12:03:42.695Z,79.78
2022-08-18T12:06:19.433Z,79.43
2022-08-18T12:08:59.373Z,79.45
2022-08-18T12:11:29.968Z,79.09
2022-08-18T12:14:01.797Z,78.94
2022-08-18T12:16:50.109Z,78.77
2022-08-18T12:19:19.637Z,78.64
2022-08-18T12:21:52.138Z,77.89
2022-08-18T12:24:26.412Z,78.07
2022-08-18T12:27:20.837Z,77.83
2022-08-18T12:29:50.364Z,76.87
2022-08-18T12:32:49.011Z,77.41
2022-08-18T12:35:09.503Z,76.79
2022-08-18T12:40:27.609Z,76.01
2022-08-18T12:42:55.953Z,76.61
2022-08-18T12:45:25.735Z,76.86
2022-08-18T12:47:54.914Z,75.46
2022-08-18T12:50:31.284Z,75.36
2022-08-18T12:53:04.810Z,75.09
2022-08-18T12:55:37.622Z,75.46
2022-08-18T12:58:12.119Z,75.34
2022-08-18T13:00:40.876Z,74.53
2022-08-18T13:03:09.153Z,75.02
2022-08-18T13:05:37.340Z,74.24
2022-08-18T13:08:08.258Z,74.23
2022-08-18T13:10:45.464Z,74.73
2022-08-18T13:13:16.038Z,74.10
2022-08-18T13:15:44.358Z,73.32
2022-08-18T13:18:28.617Z,74.22
2022-08-18T13:20:56.985Z,73.38
2022-08-18T13:23:25.296Z,74.19
2022-08-18T13:25:59.306Z,72.84
2022-08-18T13:28:35.659Z,74.04
2022-08-18T13:31:04.336Z,72.14
2022-08-18T13:33:57.834Z,72.54
2022-08-18T13:36:22.298Z,72.38
2022-08-18T13:38:54.745Z,71.36
2022-08-18T13:43:52.517Z,71.50
2022-08-18T13:46:24.303Z,71.81
2022-08-18T13:49:03.500Z,73.51
2022-08-18T13:51:31.637Z,73.47
2022-08-18T13:54:17.980Z,72.95
2022-08-18T13:56:51.536Z,71.52
2022-08-18T13:59:20.627Z,70.48
2022-08-18T14:01:51.714Z,72.03
2022-08-18T14:04:22.354Z,71.92
2022-08-18T14:06:56.943Z,71.75
2022-08-18T14:09:36.435Z,71.72
2022-08-18T14:12:21.773Z,71.68
2022-08-18T14:14:53.268Z,71.20
2022-08-18T14:17:22.269Z,71.54
2022-08-18T14:20:10.291Z,71.19
2022-08-18T14:23:00.204Z,70.34
2022-08-18T14:25:47.264Z,69.34
2022-08-18T14:28:18.600Z,69.23
2022-08-18T14:30:54.664Z,69.54
2022-08-18T14:33:34.230Z,69.16
2022-08-18T14:36:12.674Z,69.75
2022-08-18T14:38:41.177Z,68.87
2022-08-18T14:41:11.374Z,69.06
2022-08-18T14:44:10.993Z,69.13
2022-08-18T14:46:33.022Z,69.67
2022-08-18T14:49:04.285Z,69.33
2022-08-18T14:51:33.419Z,68.84
2022-08-18T14:54:02.946Z,68.42
2022-08-18T14:56:33.555Z,68.75
2022-08-18T14:59:07.559Z,68.80
2022-08-18T15:01:36.896Z,68.13
2022-08-18T15:04:19.154Z,68.39
2022-08-18T15:06:55.908Z,68.74
2022-08-18T15:09:24.351Z,68.79
2022-08-18T15:11:55.797Z,67.32
2022-08-18T15:14:32.751Z,66.99
2022-08-18T15:17:01.629Z,67.14
2022-08-18T15:19:57.596Z,68.04
2022-08-18T15:22:35.120Z,68.37
2022-08-18T15:25:24.273Z,67.86
2022-08-18T15:27:52.988Z,67.18
2022-08-18T15:30:22.544Z,67.02
2022-08-18T15:32:51.099Z,67.23
2022-08-18T15:35:19.808Z,66.81
2022-08-18T15:37:51.386Z,66.73
2022-08-18T15:40:31.226Z,67.09
2022-08-18T15:43:10.076Z,66.37
2022-08-18T15:45:56.380Z,66.55
2022-08-18T15:48:27.925Z,66.90
2022-08-18T15:50:55.704Z,66.82
2022-08-18T15:53:25.443Z,67.62
2022-08-18T15:55:57.820Z,68.18
2022-08-18T15:58:26.788Z,68.69
2022-08-18T16:00:59.090Z,68.46
2022-08-18T16:03:29.010Z,69.08
2022-08-18T16:05:56.710Z,69.01
2022-08-18T16:08:26.252Z,69.34
2022-08-18T16:10:57.748Z,69.62
2022-08-18T16:13:26.312Z,69.12
2022-08-18T16:15:54.073Z,69.55
2022-08-18T16:18:23.099Z,69.85
2022-08-18T16:21:12.270Z,70.22
2022-08-18T16:23:40.892Z,70.82
2022-08-18T16:26:09.219Z,70.32
2022-08-18T16:28:37.003Z,70.54
2022-08-18T16:31:05.836Z,71.25
2022-08-18T16:33:34.891Z,71.21
2022-08-18T16:36:08.212Z,71.29
2022-08-18T16:38:36.872Z,71.36
2022-08-18T16:41:11.319Z,73.35
2022-08-18T16:43:44.284Z,74.33
2022-08-18T16:46:12.668Z,74.30
2022-08-18T16:48:41.777Z,75.41
2022-08-18T16:51:16.631Z,75.05
2022-08-18T16:53:45.536Z,75.10
2022-08-18T16:56:14.669Z,74.22
2022-08-18T16:58:59.859Z,74.77
2022-08-18T17:01:53.608Z,75.32
2022-08-18T17:04:24.615Z,76.02
2022-08-18T17:06:52.527Z,75.79
2022-08-18T17:09:20.686Z,75.79
2022-08-18T17:11:52.055Z,75.04
2022-08-18T17:14:22.103Z,75.66
2022-08-18T17:16:53.008Z,74.83
2022-08-18T17:19:23.007Z,76.15
2022-08-18T17:21:50.546Z,76.28
2022-08-18T17:24:31.218Z,76.80
2022-08-18T17:27:11.844Z,76.69
2022-08-18T17:29:45.805Z,76.47
2022-08-18T17:32:19.991Z,76.21
2022-08-18T17:34:53.823Z,75.87
2022-08-18T17:37:23.852Z,76.75
2022-08-18T17:39:55.199Z,76.28
2022-08-18T17:42:31.015Z,76.72
2022-08-18T17:45:01.099Z,75.58
2022-08-18T17:47:35.756Z,75.84
2022-08-18T17:50:31.147Z,75.60
2022-08-18T17:53:05.140Z,76.01
2022-08-18T17:55:40.013Z,75.89
2022-08-18T17:58:13.403Z,75.38
2022-08-18T18:00:42.116Z,75.96
2022-08-18T18:03:12.788Z,76.02
2022-08-18T18:05:44.415Z,75.88
2022-08-18T18:08:11.970Z,75.10
2022-08-18T18:11:02.180Z,75.65
2022-08-18T18:13:32.341Z,74.90
2022-08-18T18:16:02.620Z,74.72
2022-08-18T18:18:41.154Z,76.49
2022-08-18T18:21:21.549Z,75.36
2022-08-18T18:23:50.996Z,75.91
2022-08-18T18:26:36.784Z,76.17
2022-08-18T18:29:20.411Z,75.84
2022-08-18T18:31:58.510Z,76.71
2022-08-18T18:34:39.281Z,77.87
2022-08-18T18:37:25.244Z,76.54
2022-08-18T18:39:57.432Z,77.29
2022-08-18T18:42:26.557Z,77.11
2022-08-18T18:44:56.252Z,76.75
2022-08-18T18:47:47.318Z,75.02
2022-08-18T18:50:21.361Z,76.97
2022-08-18T18:52:59.633Z,79.05
2022-08-18T18:55:29.284Z,76.65
2022-08-18T18:58:13.822Z,77.66
2022-08-18T19:00:53.583Z,78.65
2022-08-18T19:03:25.119Z,80.17
2022-08-18T19:06:08.792Z,79.42
2022-08-18T19:08:45.419Z,79.33
2022-08-18T19:11:18.076Z,78.64
2022-08-18T19:13:54.264Z,79.10
2022-08-18T19:16:26.154Z,79.50
2022-08-18T19:18:59.743Z,79.35
2022-08-18T19:22:04.134Z,78.83
2022-08-18T19:24:38.415Z,80.05
2022-08-18T19:27:08.810Z,78.47
2022-08-18T19:29:41.324Z,79.97
2022-08-18T19:32:16.325Z,80.40
2022-08-18T19:34:51.452Z,80.14
2022-08-18T19:37:30.929Z,78.45
2022-08-18T19:40:09.515Z,79.51
2022-08-18T19:42:41.877Z,80.38
2022-08-18T19:45:17.148Z,80.65
2022-08-18T19:47:50.153Z,80.53
2022-08-18T19:50:23.639Z,82.64
2022-08-18T19:53:05.283Z,80.13
2022-08-18T19:55:43.942Z,80.22
2022-08-18T19:58:31.761Z,79.91
2022-08-18T20:01:05.809Z,80.12
2022-08-18T20:03:54.327Z,80.91
2022-08-18T20:06:48.176Z,82.03
2022-08-18T20:09:28.911Z,80.74
2022-08-18T20:12:09.117Z,79.95
2022-08-18T20:14:39.228Z,79.48
2022-08-18T20:17:16.618Z,79.77
2022-08-18T20:19:50.715Z,80.26
2022-08-18T20:22:33.756Z,78.71
2022-08-18T20:25:06.583Z,79.21
2022-08-18T20:27:38.693Z,79.99
2022-08-18T20:30:28.392Z,79.20
2022-08-18T20:33:30.472Z,77.57
2022-08-18T20:36:25.465Z,80.53
2022-08-18T20:38:54.491Z,79.55
2022-08-18T20:41:41.255Z,79.49
2022-08-18T20:44:37.333Z,78.58
2022-08-18T20:47:17.184Z,78.76
2022-08-18T20:49:55.151Z,80.94
2022-08-18T20:52:30.147Z,78.76
2022-08-18T20:55:11.361Z,77.96
2022-08-18T20:57:39.912Z,80.29
2022-08-18T21:00:15.607Z,80.25
2022-08-18T21:02:48.935Z,79.05
2022-08-18T21:05:27.984Z,78.45
2022-08-18T21:08:03.281Z,78.79
2022-08-18T21:10:32.272Z,79.53
2022-08-18T21:13:00.938Z,78.62
2022-08-18T21:15:31.707Z,77.73
2022-08-18T21:18:03.115Z,78.06
2022-08-18T21:20:32.000Z,77.30
2022-08-18T21:23:06.393Z,78.41
2022-08-18T21:25:34.080Z,77.38
2022-08-18T21:28:03.859Z,79.03
2022-08-18T21:30:33.209Z,79.30
2022-08-18T21:33:03.404Z,77.67
2022-08-18T21:35:33.617Z,76.92
2022-08-18T21:38:05.522Z,77.29
2022-08-18T21:40:39.259Z,76.98
2022-08-18T21:43:09.564Z,77.22
2022-08-18T21:45:47.428Z,77.08
2022-08-18T21:48:16.020Z,75.68
2022-08-18T21:50:51.206Z,76.05
2022-08-18T21:53:21.908Z,76.04
2022-08-18T21:55:51.364Z,75.50
2022-08-18T21:58:21.359Z,76.22
2022-08-18T22:01:17.249Z,75.61
2022-08-18T22:03:53.875Z,76.91
2022-08-18T22:06:30.697Z,75.59
2022-08-18T22:09:20.264Z,76.19
2022-08-18T22:12:05.603Z,75.54
2022-08-18T22:14:54.514Z,74.85
2022-08-18T22:17:35.814Z,75.00
2022-08-18T22:20:39.069Z,75.00
2022-08-18T22:23:41.726Z,74.34
2022-08-18T22:26:12.302Z,75.32
2022-08-18T22:28:49.756Z,75.30
2022-08-18T22:31:21.124Z,75.11
2022-08-18T22:33:51.096Z,74.58
2022-08-18T22:36:21.703Z,74.24
2022-08-18T22:39:08.589Z,73.83
2022-08-18T22:41:36.401Z,73.89
2022-08-18T22:44:08.040Z,74.90
2022-08-18T22:46:36.282Z,74.68
2022-08-18T22:49:06.588Z,74.78
2022-08-18T22:51:37.084Z,75.94
2022-08-18T22:54:08.288Z,75.39
2022-08-18T22:56:37.998Z,76.90
2022-08-18T22:59:16.100Z,77.58
2022-08-18T23:01:50.216Z,77.36
2022-08-18T23:04:21.485Z,77.78
2022-08-18T23:06:51.981Z,76.34
2022-08-18T23:09:21.486Z,76.03
2022-08-18T23:11:49.041Z,76.81
2022-08-18T23:14:16.848Z,76.40
2022-08-18T23:16:45.347Z,76.77
2022-08-18T23:19:14.319Z,76.81
2022-08-18T23:21:43.387Z,76.12
2022-08-18T23:24:13.635Z,76.74
2022-08-18T23:26:41.664Z,77.49
2022-08-18T23:29:11.409Z,78.19
2022-08-18T23:31:40.214Z,77.91
2022-08-18T23:34:08.335Z,77.35
2022-08-18T23:36:37.344Z,77.65
2022-08-18T23:39:06.575Z,76.76
2022-08-18T23:41:34.520Z,77.31
2022-08-18T23:44:02.024Z,78.48
2022-08-18T23:46:32.799Z,78.70
2022-08-18T23:49:03.101Z,78.11
2022-08-18T23:51:33.276Z,78.44
2022-08-18T23:54:07.640Z,78.87
2022-08-18T23:56:37.724Z,78.78
2022-08-18T23:59:06.552Z,79.40
